createdAt,value
2018-04-18T17:59:09.436Z,6.40
2018-04-18T18:01:43.068Z,7.97
2018-04-18T18:04:16.624Z,8.03
2018-04-18T18:06:50.385Z,6.50
2018-04-18T18:09:24.084Z,3.63
2018-04-18T18:11:57.783Z,3.20
2018-04-18T18:14:31.393Z,5.93
2018-04-18T18:17:04.976Z,9.43
2018-04-18T18:19:38.796Z,5.53
2018-04-18T18:22:12.394Z,6.63
2018-04-18T18:24:45.883Z,7.67
2018-04-18T18:27:19.600Z,11.07
2018-04-18T18:29:53.387Z,11.13
2018-04-18T18:32:26.868Z,13.30
2018-04-18T18:35:00.703Z,11.00
2018-04-18T18:37:34.262Z,13.83
2018-04-18T18:40:07.804Z,16.90
2018-04-18T18:42:41.388Z,17.03
2018-04-18T18:45:15.093Z,22.30
2018-04-18T18:47:48.688Z,19.17
2018-04-18T18:50:22.211Z,20.50
2018-04-18T18:52:55.771Z,22.07
2018-04-18T18:55:29.584Z,23.20
2018-04-18T18:58:03.333Z,21.87
2018-04-18T19:00:36.215Z,18.37
2018-04-18T19:03:09.808Z,25.73
2018-04-18T19:05:43.536Z,26.80
2018-04-18T19:08:17.061Z,23.90
2018-04-18T19:10:51.021Z,24.47
2018-04-18T19:13:24.728Z,20.33
2018-04-18T19:15:58.520Z,21.43
2018-04-18T19:18:32.101Z,22.07
2018-04-18T19:21:05.681Z,24.53
2018-04-18T19:23:39.181Z,26.47
2018-04-18T19:26:12.712Z,20.03
2018-04-18T19:28:46.369Z,19.87
2018-04-18T19:31:20.119Z,20.93
2018-04-18T19:33:53.683Z,23.40
2018-04-18T19:36:27.303Z,18.37
2018-04-18T19:39:00.858Z,26.07
2018-04-18T19:41:34.603Z,27.47
2018-04-18T19:44:08.099Z,26.97
2018-04-18T19:46:41.619Z,22.80
2018-04-18T19:49:15.164Z,22.53
2018-04-18T19:51:48.820Z,21.60
2018-04-18T19:54:22.498Z,21.63
2018-04-18T19:56:56.305Z,20.57
2018-04-18T19:59:30.079Z,23.80
2018-04-18T20:02:03.908Z,21.77
2018-04-18T20:04:37.456Z,23.90
2018-04-18T20:07:11.092Z,20.40
2018-04-18T20:09:44.823Z,21.70
2018-04-18T20:12:18.587Z,18.67
2018-04-18T20:14:52.400Z,20.77
2018-04-18T20:17:26.168Z,21.67
2018-04-18T20:19:59.752Z,23.60
2018-04-18T20:22:33.569Z,17.13
2018-04-18T20:25:07.346Z,23.77
2018-04-18T20:27:41.084Z,21.67
2018-04-18T20:30:14.688Z,19.83
2018-04-18T20:32:48.323Z,18.93
2018-04-18T20:35:21.924Z,19.50
2018-04-18T20:37:55.748Z,18.43
2018-04-18T20:40:29.286Z,18.83
2018-04-18T20:43:03.056Z,22.00
2018-04-18T20:45:36.581Z,21.57
2018-04-18T20:48:10.140Z,19.90
2018-04-18T20:50:43.773Z,17.00
2018-04-18T20:53:17.448Z,20.20
2018-04-18T20:55:50.945Z,22.43
2018-04-18T20:58:24.468Z,17.20
2018-04-18T21:00:57.972Z,19.60
2018-04-18T21:03:31.539Z,16.03
2018-04-18T21:06:05.057Z,18.97
2018-04-18T21:08:38.660Z,17.43
2018-04-18T21:11:12.206Z,17.87
2018-04-18T21:13:45.826Z,14.57
2018-04-18T21:16:19.464Z,13.67
2018-04-18T21:18:52.975Z,16.90
2018-04-18T21:21:26.572Z,10.37
2018-04-18T21:24:00.123Z,9.33
2018-04-18T21:26:33.921Z,10.70
2018-04-18T21:29:07.497Z,11.53
2018-04-18T21:31:41.283Z,12.50
2018-04-18T21:34:14.868Z,12.07
2018-04-18T21:36:48.390Z,11.27
2018-04-18T21:39:22.023Z,9.00
2018-04-18T21:41:55.632Z,12.60
2018-04-18T21:44:29.350Z,6.73
2018-04-18T21:47:03.030Z,9.70
2018-04-18T21:49:36.712Z,10.03
2018-04-18T21:52:10.256Z,6.30
2018-04-18T21:54:43.861Z,9.53
2018-04-18T21:57:17.624Z,10.27
2018-04-18T21:59:51.321Z,7.63
2018-04-18T22:02:24.911Z,8.63
2018-04-18T22:04:58.644Z,6.90
2018-04-18T22:07:32.727Z,9.13
2018-04-18T22:10:06.419Z,5.70
2018-04-18T22:12:40.124Z,5.67
2018-04-18T22:15:13.716Z,5.73
2018-04-18T22:17:47.476Z,7.97
2018-04-18T22:20:21.160Z,5.53
2018-04-18T22:22:54.769Z,6.97
2018-04-18T22:25:28.467Z,5.37
2018-04-18T22:28:02.056Z,6.37
2018-04-18T22:30:35.761Z,6.97
2018-04-18T22:33:09.668Z,6.87
2018-04-18T22:35:43.427Z,6.67
2018-04-18T22:38:17.080Z,4.63
2018-04-18T22:40:50.621Z,6.70
2018-04-18T22:43:24.337Z,5.43
2018-04-18T22:45:57.824Z,5.63
2018-04-18T22:48:31.617Z,5.70
2018-04-18T22:51:05.304Z,5.70
2018-04-18T22:53:38.909Z,5.33
2018-04-18T22:56:12.457Z,4.77
2018-04-18T22:58:46.207Z,3.90
2018-04-18T23:01:19.763Z,4.23
2018-04-18T23:03:53.713Z,7.83
2018-04-18T23:06:27.324Z,6.83
2018-04-18T23:09:00.992Z,5.37
2018-04-18T23:11:34.528Z,6.00
2018-04-18T23:14:08.348Z,6.67
2018-04-18T23:16:41.907Z,5.83
2018-04-18T23:19:15.937Z,4.30
2018-04-18T23:21:49.717Z,5.70
2018-04-18T23:24:23.486Z,8.63
2018-04-18T23:26:57.028Z,3.93
2018-04-18T23:29:30.527Z,6.00
2018-04-18T23:32:04.204Z,7.53
2018-04-18T23:34:37.978Z,4.77
2018-04-18T23:37:11.583Z,7.70
2018-04-18T23:39:45.407Z,4.53
2018-04-18T23:42:18.939Z,7.60
2018-04-18T23:44:52.704Z,5.80
2018-04-18T23:47:26.375Z,5.77
2018-04-18T23:50:00.048Z,5.53
2018-04-18T23:52:33.628Z,5.47
2018-04-18T23:55:07.428Z,6.77
2018-04-18T23:57:41.027Z,8.63
